sensor_id;sensor_type;location;lat;lon;timestamp;temperature;humidity
4673;DHT22;61885;53.560;9.940;2023-07-24T00:00:23;18.70;90.20
4673;DHT22;61885;53.560;9.940;2023-07-24T00:02:52;18.80;90.20
4673;DHT22;61885;53.560;9.940;2023-07-24T00:05:23;18.70;90.10
4673;DHT22;61885;53.560;9.940;2023-07-24T00:07:55;18.70;90.30
4673;DHT22;61885;53.560;9.940;2023-07-24T00:10:24;18.60;90.40
4673;DHT22;61885;53.560;9.940;2023-07-24T00:12:57;18.60;90.50
4673;DHT22;61885;53.560;9.940;2023-07-24T00:15:27;18.70;90.50
4673;DHT22;61885;53.560;9.940;2023-07-24T00:17:57;18.70;90.60
4673;DHT22;61885;53.560;9.940;2023-07-24T00:20:26;18.60;90.60
4673;DHT22;61885;53.560;9.940;2023-07-24T00:22:58;18.70;90.80
4673;DHT22;61885;53.560;9.940;2023-07-24T00:25:28;18.70;90.90
4673;DHT22;61885;53.560;9.940;2023-07-24T00:27:58;18.70;90.80
4673;DHT22;61885;53.560;9.940;2023-07-24T00:30:27;18.60;90.80
4673;DHT22;61885;53.560;9.940;2023-07-24T00:32:57;18.60;91.00
4673;DHT22;61885;53.560;9.940;2023-07-24T00:35:26;18.60;91.30
4673;DHT22;61885;53.560;9.940;2023-07-24T00:37:58;18.60;91.50
4673;DHT22;61885;53.560;9.940;2023-07-24T00:40:28;18.60;91.40
4673;DHT22;61885;53.560;9.940;2023-07-24T00:42:57;18.40;91.80
4673;DHT22;61885;53.560;9.940;2023-07-24T00:45:27;18.50;91.60
4673;DHT22;61885;53.560;9.940;2023-07-24T00:47:57;18.50;91.70
4673;DHT22;61885;53.560;9.940;2023-07-24T00:50:29;18.50;91.70
4673;DHT22;61885;53.560;9.940;2023-07-24T00:53:02;18.60;91.60
4673;DHT22;61885;53.560;9.940;2023-07-24T00:55:31;18.60;91.60
4673;DHT22;61885;53.560;9.940;2023-07-24T00:58:03;18.70;91.60
4673;DHT22;61885;53.560;9.940;2023-07-24T01:00:32;18.60;91.50
4673;DHT22;61885;53.560;9.940;2023-07-24T01:03:02;18.60;91.60
4673;DHT22;61885;53.560;9.940;2023-07-24T01:05:32;18.60;91.80
4673;DHT22;61885;53.560;9.940;2023-07-24T01:08:04;18.60;91.80
4673;DHT22;61885;53.560;9.940;2023-07-24T01:10:34;18.60;91.80
4673;DHT22;61885;53.560;9.940;2023-07-24T01:13:09;18.60;92.10
4673;DHT22;61885;53.560;9.940;2023-07-24T01:15:48;18.60;91.80
4673;DHT22;61885;53.560;9.940;2023-07-24T01:18:21;18.70;91.90
4673;DHT22;61885;53.560;9.940;2023-07-24T01:20:56;18.60;91.70
4673;DHT22;61885;53.560;9.940;2023-07-24T01:23:40;18.70;92.00
4673;DHT22;61885;53.560;9.940;2023-07-24T01:26:18;18.60;91.80
4673;DHT22;61885;53.560;9.940;2023-07-24T01:28:48;18.70;91.60
4673;DHT22;61885;53.560;9.940;2023-07-24T01:31:18;18.70;91.70
4673;DHT22;61885;53.560;9.940;2023-07-24T01:33:47;18.70;91.50
4673;DHT22;61885;53.560;9.940;2023-07-24T01:36:18;18.60;91.80
4673;DHT22;61885;53.560;9.940;2023-07-24T01:38:52;18.70;91.80
4673;DHT22;61885;53.560;9.940;2023-07-24T01:41:25;18.60;92.10
4673;DHT22;61885;53.560;9.940;2023-07-24T01:43:55;18.60;92.10
4673;DHT22;61885;53.560;9.940;2023-07-24T01:46:28;18.60;92.30
4673;DHT22;61885;53.560;9.940;2023-07-24T01:48:57;18.70;92.40
4673;DHT22;61885;53.560;9.940;2023-07-24T01:51:26;18.70;92.10
4673;DHT22;61885;53.560;9.940;2023-07-24T01:53:56;18.60;92.30
4673;DHT22;61885;53.560;9.940;2023-07-24T01:56:28;18.70;92.20
4673;DHT22;61885;53.560;9.940;2023-07-24T01:58:58;18.70;92.30
4673;DHT22;61885;53.560;9.940;2023-07-24T02:01:27;18.70;92.00
4673;DHT22;61885;53.560;9.940;2023-07-24T02:03:57;18.60;92.20
4673;DHT22;61885;53.560;9.940;2023-07-24T02:06:27;18.70;92.10
4673;DHT22;61885;53.560;9.940;2023-07-24T02:08:57;18.80;92.20
4673;DHT22;61885;53.560;9.940;2023-07-24T02:11:29;18.70;92.30
4673;DHT22;61885;53.560;9.940;2023-07-24T02:13:59;18.60;92.20
4673;DHT22;61885;53.560;9.940;2023-07-24T02:16:29;18.70;92.30
4673;DHT22;61885;53.560;9.940;2023-07-24T02:18:59;18.70;92.30
4673;DHT22;61885;53.560;9.940;2023-07-24T02:21:29;18.60;92.30
4673;DHT22;61885;53.560;9.940;2023-07-24T02:23:58;18.60;92.40
4673;DHT22;61885;53.560;9.940;2023-07-24T02:26:30;18.70;92.50
4673;DHT22;61885;53.560;9.940;2023-07-24T02:29:00;18.70;92.40
4673;DHT22;61885;53.560;9.940;2023-07-24T02:31:30;18.60;92.50
4673;DHT22;61885;53.560;9.940;2023-07-24T02:33:59;18.70;92.30
4673;DHT22;61885;53.560;9.940;2023-07-24T02:36:34;18.70;92.60
4673;DHT22;61885;53.560;9.940;2023-07-24T02:39:07;18.60;92.60
4673;DHT22;61885;53.560;9.940;2023-07-24T02:41:40;18.50;92.80
4673;DHT22;61885;53.560;9.940;2023-07-24T02:44:09;18.60;92.90
4673;DHT22;61885;53.560;9.940;2023-07-24T02:46:39;18.60;92.60
4673;DHT22;61885;53.560;9.940;2023-07-24T02:49:08;18.50;92.70
4673;DHT22;61885;53.560;9.940;2023-07-24T02:51:38;18.40;92.80
4673;DHT22;61885;53.560;9.940;2023-07-24T02:54:07;18.50;92.70
4673;DHT22;61885;53.560;9.940;2023-07-24T02:56:39;18.40;92.90
4673;DHT22;61885;53.560;9.940;2023-07-24T02:59:09;18.40;92.90
4673;DHT22;61885;53.560;9.940;2023-07-24T03:01:38;18.50;92.70
4673;DHT22;61885;53.560;9.940;2023-07-24T03:04:08;18.50;92.60
4673;DHT22;61885;53.560;9.940;2023-07-24T03:06:39;18.40;92.50
4673;DHT22;61885;53.560;9.940;2023-07-24T03:09:10;18.60;92.40
4673;DHT22;61885;53.560;9.940;2023-07-24T03:11:42;18.50;92.60
4673;DHT22;61885;53.560;9.940;2023-07-24T03:14:13;18.50;92.50
4673;DHT22;61885;53.560;9.940;2023-07-24T03:16:43;18.60;92.20
4673;DHT22;61885;53.560;9.940;2023-07-24T03:19:12;18.60;92.10
4673;DHT22;61885;53.560;9.940;2023-07-24T03:21:44;18.60;92.00
4673;DHT22;61885;53.560;9.940;2023-07-24T03:24:13;18.60;92.10
4673;DHT22;61885;53.560;9.940;2023-07-24T03:26:45;18.60;92.00
4673;DHT22;61885;53.560;9.940;2023-07-24T03:29:15;18.50;91.90
4673;DHT22;61885;53.560;9.940;2023-07-24T03:31:44;18.60;92.10
4673;DHT22;61885;53.560;9.940;2023-07-24T03:34:14;18.50;92.20
4673;DHT22;61885;53.560;9.940;2023-07-24T03:36:43;18.50;92.10
4673;DHT22;61885;53.560;9.940;2023-07-24T03:39:13;18.40;92.40
4673;DHT22;61885;53.560;9.940;2023-07-24T03:41:45;18.30;92.50
4673;DHT22;61885;53.560;9.940;2023-07-24T03:44:16;18.40;92.70
4673;DHT22;61885;53.560;9.940;2023-07-24T03:46:45;18.20;92.70
4673;DHT22;61885;53.560;9.940;2023-07-24T03:49:15;18.30;92.90
4673;DHT22;61885;53.560;9.940;2023-07-24T03:51:46;18.30;92.80
4673;DHT22;61885;53.560;9.940;2023-07-24T03:54:15;18.20;93.00
4673;DHT22;61885;53.560;9.940;2023-07-24T03:56:47;18.20;92.80
4673;DHT22;61885;53.560;9.940;2023-07-24T03:59:17;18.20;93.00
4673;DHT22;61885;53.560;9.940;2023-07-24T04:01:47;18.20;93.00
4673;DHT22;61885;53.560;9.940;2023-07-24T04:04:16;18.20;93.00
4673;DHT22;61885;53.560;9.940;2023-07-24T04:06:46;18.10;93.60
4673;DHT22;61885;53.560;9.940;2023-07-24T04:09:16;18.10;93.60
4673;DHT22;61885;53.560;9.940;2023-07-24T04:11:49;18.20;92.90
4673;DHT22;61885;53.560;9.940;2023-07-24T04:14:21;18.10;93.20
4673;DHT22;61885;53.560;9.940;2023-07-24T04:16:50;18.20;92.70
4673;DHT22;61885;53.560;9.940;2023-07-24T04:19:22;18.20;92.50
4673;DHT22;61885;53.560;9.940;2023-07-24T04:21:51;18.30;92.20
4673;DHT22;61885;53.560;9.940;2023-07-24T04:24:18;18.30;92.00
4673;DHT22;61885;53.560;9.940;2023-07-24T04:26:50;18.30;91.90
4673;DHT22;61885;53.560;9.940;2023-07-24T04:29:20;18.30;91.90
4673;DHT22;61885;53.560;9.940;2023-07-24T04:31:52;18.30;91.50
4673;DHT22;61885;53.560;9.940;2023-07-24T04:34:22;18.40;91.50
4673;DHT22;61885;53.560;9.940;2023-07-24T04:36:51;18.50;91.20
4673;DHT22;61885;53.560;9.940;2023-07-24T04:39:21;18.50;91.10
4673;DHT22;61885;53.560;9.940;2023-07-24T04:41:53;18.40;91.00
4673;DHT22;61885;53.560;9.940;2023-07-24T04:44:23;18.50;91.10
4673;DHT22;61885;53.560;9.940;2023-07-24T04:46:52;18.40;91.20
4673;DHT22;61885;53.560;9.940;2023-07-24T04:49:22;18.50;91.20
4673;DHT22;61885;53.560;9.940;2023-07-24T04:51:51;18.50;91.20
4673;DHT22;61885;53.560;9.940;2023-07-24T04:54:21;18.60;91.10
4673;DHT22;61885;53.560;9.940;2023-07-24T04:56:53;18.60;91.00
4673;DHT22;61885;53.560;9.940;2023-07-24T04:59:25;18.60;90.70
4673;DHT22;61885;53.560;9.940;2023-07-24T05:01:54;18.70;90.70
4673;DHT22;61885;53.560;9.940;2023-07-24T05:04:24;18.80;90.50
4673;DHT22;61885;53.560;9.940;2023-07-24T05:06:54;18.70;90.50
4673;DHT22;61885;53.560;9.940;2023-07-24T05:09:23;18.70;90.30
4673;DHT22;61885;53.560;9.940;2023-07-24T05:11:55;18.70;90.40
4673;DHT22;61885;53.560;9.940;2023-07-24T05:14:27;18.70;90.50
4673;DHT22;61885;53.560;9.940;2023-07-24T05:16:58;18.80;90.80
4673;DHT22;61885;53.560;9.940;2023-07-24T05:19:27;18.90;90.30
4673;DHT22;61885;53.560;9.940;2023-07-24T05:21:59;19.00;89.90
4673;DHT22;61885;53.560;9.940;2023-07-24T05:24:29;19.20;89.40
4673;DHT22;61885;53.560;9.940;2023-07-24T05:27:01;19.10;89.30
4673;DHT22;61885;53.560;9.940;2023-07-24T05:29:30;19.20;89.00
4673;DHT22;61885;53.560;9.940;2023-07-24T05:32:00;19.10;89.10
4673;DHT22;61885;53.560;9.940;2023-07-24T05:34:29;18.90;89.70
4673;DHT22;61885;53.560;9.940;2023-07-24T05:36:59;19.00;89.70
4673;DHT22;61885;53.560;9.940;2023-07-24T05:39:30;19.10;89.10
4673;DHT22;61885;53.560;9.940;2023-07-24T05:42:04;19.20;89.00
4673;DHT22;61885;53.560;9.940;2023-07-24T05:44:33;19.30;88.70
4673;DHT22;61885;53.560;9.940;2023-07-24T05:47:04;19.30;88.30
4673;DHT22;61885;53.560;9.940;2023-07-24T05:49:33;19.40;88.20
4673;DHT22;61885;53.560;9.940;2023-07-24T05:52:03;19.20;88.50
4673;DHT22;61885;53.560;9.940;2023-07-24T05:54:33;19.20;88.30
4673;DHT22;61885;53.560;9.940;2023-07-24T05:57:06;19.20;88.30
4673;DHT22;61885;53.560;9.940;2023-07-24T05:59:35;19.20;88.30
4673;DHT22;61885;53.560;9.940;2023-07-24T06:02:05;19.20;88.20
4673;DHT22;61885;53.560;9.940;2023-07-24T06:04:37;19.20;88.40
4673;DHT22;61885;53.560;9.940;2023-07-24T06:07:06;19.10;88.30
4673;DHT22;61885;53.560;9.940;2023-07-24T06:09:36;19.20;88.50
4673;DHT22;61885;53.560;9.940;2023-07-24T06:12:08;19.20;88.30
4673;DHT22;61885;53.560;9.940;2023-07-24T06:14:38;19.40;87.90
4673;DHT22;61885;53.560;9.940;2023-07-24T06:17:07;19.40;87.90
4673;DHT22;61885;53.560;9.940;2023-07-24T06:19:37;19.50;87.50
4673;DHT22;61885;53.560;9.940;2023-07-24T06:22:07;19.70;87.20
4673;DHT22;61885;53.560;9.940;2023-07-24T06:24:37;19.70;86.40
4673;DHT22;61885;53.560;9.940;2023-07-24T06:27:09;19.80;86.10
4673;DHT22;61885;53.560;9.940;2023-07-24T06:29:39;19.90;85.90
4673;DHT22;61885;53.560;9.940;2023-07-24T06:32:09;19.80;86.20
4673;DHT22;61885;53.560;9.940;2023-07-24T06:34:39;19.80;86.10
4673;DHT22;61885;53.560;9.940;2023-07-24T06:37:08;19.80;86.00
4673;DHT22;61885;53.560;9.940;2023-07-24T06:39:38;19.90;86.00
4673;DHT22;61885;53.560;9.940;2023-07-24T06:42:11;19.90;85.70
4673;DHT22;61885;53.560;9.940;2023-07-24T06:44:40;19.90;85.50
4673;DHT22;61885;53.560;9.940;2023-07-24T06:47:10;20.00;85.40
4673;DHT22;61885;53.560;9.940;2023-07-24T06:49:39;19.90;85.20
4673;DHT22;61885;53.560;9.940;2023-07-24T06:52:09;19.90;85.40
4673;DHT22;61885;53.560;9.940;2023-07-24T06:54:40;19.90;85.40
4673;DHT22;61885;53.560;9.940;2023-07-24T06:57:13;19.90;84.90
4673;DHT22;61885;53.560;9.940;2023-07-24T06:59:42;19.90;84.90
4673;DHT22;61885;53.560;9.940;2023-07-24T07:02:11;19.90;85.00
4673;DHT22;61885;53.560;9.940;2023-07-24T07:04:41;19.90;85.20
4673;DHT22;61885;53.560;9.940;2023-07-24T07:07:11;19.90;85.10
4673;DHT22;61885;53.560;9.940;2023-07-24T07:09:41;19.90;85.00
4673;DHT22;61885;53.560;9.940;2023-07-24T07:12:13;19.80;85.10
4673;DHT22;61885;53.560;9.940;2023-07-24T07:14:42;19.70;85.60
4673;DHT22;61885;53.560;9.940;2023-07-24T07:17:12;19.60;85.90
4673;DHT22;61885;53.560;9.940;2023-07-24T07:19:42;19.70;85.80
4673;DHT22;61885;53.560;9.940;2023-07-24T07:22:11;19.80;85.80
4673;DHT22;61885;53.560;9.940;2023-07-24T07:24:41;19.80;85.60
4673;DHT22;61885;53.560;9.940;2023-07-24T07:27:15;19.80;85.40
4673;DHT22;61885;53.560;9.940;2023-07-24T07:29:46;19.80;85.50
4673;DHT22;61885;53.560;9.940;2023-07-24T07:32:18;19.80;85.60
4673;DHT22;61885;53.560;9.940;2023-07-24T07:34:47;19.90;85.70
4673;DHT22;61885;53.560;9.940;2023-07-24T07:37:17;19.80;85.70
4673;DHT22;61885;53.560;9.940;2023-07-24T07:39:46;19.90;85.60
4673;DHT22;61885;53.560;9.940;2023-07-24T07:42:18;19.80;85.40
4673;DHT22;61885;53.560;9.940;2023-07-24T07:44:48;19.80;85.60
4673;DHT22;61885;53.560;9.940;2023-07-24T07:47:17;19.80;85.70
4673;DHT22;61885;53.560;9.940;2023-07-24T07:49:48;19.90;85.20
4673;DHT22;61885;53.560;9.940;2023-07-24T07:52:18;19.70;85.70
4673;DHT22;61885;53.560;9.940;2023-07-24T07:54:49;19.80;85.80
4673;DHT22;61885;53.560;9.940;2023-07-24T07:57:22;19.90;84.90
4673;DHT22;61885;53.560;9.940;2023-07-24T07:59:52;20.00;84.60
4673;DHT22;61885;53.560;9.940;2023-07-24T08:02:22;20.10;83.60
4673;DHT22;61885;53.560;9.940;2023-07-24T08:04:52;20.10;83.90
4673;DHT22;61885;53.560;9.940;2023-07-24T08:07:21;20.20;83.60
4673;DHT22;61885;53.560;9.940;2023-07-24T08:09:53;20.20;84.00
4673;DHT22;61885;53.560;9.940;2023-07-24T08:12:25;20.40;83.20
4673;DHT22;61885;53.560;9.940;2023-07-24T08:14:55;20.40;82.70
4673;DHT22;61885;53.560;9.940;2023-07-24T08:17:26;20.40;82.80
4673;DHT22;61885;53.560;9.940;2023-07-24T08:19:56;20.50;82.10
4673;DHT22;61885;53.560;9.940;2023-07-24T08:22:27;20.40;82.20
4673;DHT22;61885;53.560;9.940;2023-07-24T08:24:59;20.30;82.30
4673;DHT22;61885;53.560;9.940;2023-07-24T08:27:32;20.40;81.90
4673;DHT22;61885;53.560;9.940;2023-07-24T08:30:02;20.50;81.80
4673;DHT22;61885;53.560;9.940;2023-07-24T08:32:31;20.50;81.90
4673;DHT22;61885;53.560;9.940;2023-07-24T08:35:01;20.40;82.10
4673;DHT22;61885;53.560;9.940;2023-07-24T08:37:31;20.40;82.50
4673;DHT22;61885;53.560;9.940;2023-07-24T08:40:00;20.20;82.50
4673;DHT22;61885;53.560;9.940;2023-07-24T08:42:32;20.30;83.00
4673;DHT22;61885;53.560;9.940;2023-07-24T08:45:11;20.50;82.40
4673;DHT22;61885;53.560;9.940;2023-07-24T08:47:42;20.30;82.40
4673;DHT22;61885;53.560;9.940;2023-07-24T08:50:15;20.40;82.70
4673;DHT22;61885;53.560;9.940;2023-07-24T08:52:48;20.40;82.30
4673;DHT22;61885;53.560;9.940;2023-07-24T08:55:25;20.60;82.00
4673;DHT22;61885;53.560;9.940;2023-07-24T08:58:01;20.70;81.60
4673;DHT22;61885;53.560;9.940;2023-07-24T09:00:34;20.90;81.70
4673;DHT22;61885;53.560;9.940;2023-07-24T09:03:04;21.20;79.70
4673;DHT22;61885;53.560;9.940;2023-07-24T09:05:36;21.00;80.00
4673;DHT22;61885;53.560;9.940;2023-07-24T09:08:06;20.80;80.60
4673;DHT22;61885;53.560;9.940;2023-07-24T09:10:42;20.70;81.00
4673;DHT22;61885;53.560;9.940;2023-07-24T09:13:15;20.80;80.00
4673;DHT22;61885;53.560;9.940;2023-07-24T09:15:44;20.90;79.20
4673;DHT22;61885;53.560;9.940;2023-07-24T09:18:14;21.20;78.20
4673;DHT22;61885;53.560;9.940;2023-07-24T09:20:45;21.30;78.00
4673;DHT22;61885;53.560;9.940;2023-07-24T09:23:15;21.20;78.50
4673;DHT22;61885;53.560;9.940;2023-07-24T09:25:45;21.60;77.00
4673;DHT22;61885;53.560;9.940;2023-07-24T09:28:17;21.40;75.90
4673;DHT22;61885;53.560;9.940;2023-07-24T09:30:52;21.20;76.80
4673;DHT22;61885;53.560;9.940;2023-07-24T09:33:23;21.40;76.30
4673;DHT22;61885;53.560;9.940;2023-07-24T09:35:59;21.20;76.60
4673;DHT22;61885;53.560;9.940;2023-07-24T09:38:29;21.00;77.40
4673;DHT22;61885;53.560;9.940;2023-07-24T09:41:00;21.00;77.20
4673;DHT22;61885;53.560;9.940;2023-07-24T09:43:33;20.90;76.90
4673;DHT22;61885;53.560;9.940;2023-07-24T09:46:09;21.00;77.60
4673;DHT22;61885;53.560;9.940;2023-07-24T09:48:39;21.30;76.50
4673;DHT22;61885;53.560;9.940;2023-07-24T09:51:11;21.00;77.00
4673;DHT22;61885;53.560;9.940;2023-07-24T09:53:47;21.00;77.00
4673;DHT22;61885;53.560;9.940;2023-07-24T09:56:19;21.20;77.20
4673;DHT22;61885;53.560;9.940;2023-07-24T09:58:56;21.60;76.50
4673;DHT22;61885;53.560;9.940;2023-07-24T10:01:47;21.50;75.60
4673;DHT22;61885;53.560;9.940;2023-07-24T10:04:18;21.40;75.50
4673;DHT22;61885;53.560;9.940;2023-07-24T10:06:48;21.50;75.30
4673;DHT22;61885;53.560;9.940;2023-07-24T10:09:18;21.40;75.70
4673;DHT22;61885;53.560;9.940;2023-07-24T10:11:50;21.40;75.80
4673;DHT22;61885;53.560;9.940;2023-07-24T10:14:21;21.40;76.00
4673;DHT22;61885;53.560;9.940;2023-07-24T10:16:53;21.70;75.20
4673;DHT22;61885;53.560;9.940;2023-07-24T10:19:23;21.70;75.40
4673;DHT22;61885;53.560;9.940;2023-07-24T10:21:52;21.80;74.30
4673;DHT22;61885;53.560;9.940;2023-07-24T10:24:29;21.50;74.10
4673;DHT22;61885;53.560;9.940;2023-07-24T10:26:59;21.70;74.10
4673;DHT22;61885;53.560;9.940;2023-07-24T10:29:34;21.80;73.70
4673;DHT22;61885;53.560;9.940;2023-07-24T10:32:16;21.90;73.70
4673;DHT22;61885;53.560;9.940;2023-07-24T10:34:56;21.90;73.00
4673;DHT22;61885;53.560;9.940;2023-07-24T10:37:35;21.90;74.30
4673;DHT22;61885;53.560;9.940;2023-07-24T10:40:18;22.10;73.30
4673;DHT22;61885;53.560;9.940;2023-07-24T10:42:59;22.10;72.70
4673;DHT22;61885;53.560;9.940;2023-07-24T10:45:39;21.90;73.80
4673;DHT22;61885;53.560;9.940;2023-07-24T10:48:16;22.00;73.10
4673;DHT22;61885;53.560;9.940;2023-07-24T10:50:48;22.00;72.80
4673;DHT22;61885;53.560;9.940;2023-07-24T10:53:22;21.70;74.00
4673;DHT22;61885;53.560;9.940;2023-07-24T10:55:54;21.70;74.20
4673;DHT22;61885;53.560;9.940;2023-07-24T10:58:26;21.80;74.20
4673;DHT22;61885;53.560;9.940;2023-07-24T11:00:58;22.00;73.60
4673;DHT22;61885;53.560;9.940;2023-07-24T11:03:34;22.40;72.90
4673;DHT22;61885;53.560;9.940;2023-07-24T11:06:12;22.70;71.40
4673;DHT22;61885;53.560;9.940;2023-07-24T11:08:42;22.50;71.40
4673;DHT22;61885;53.560;9.940;2023-07-24T11:11:15;22.30;71.60
4673;DHT22;61885;53.560;9.940;2023-07-24T11:13:45;22.20;71.30
4673;DHT22;61885;53.560;9.940;2023-07-24T11:16:14;22.20;72.30
4673;DHT22;61885;53.560;9.940;2023-07-24T11:18:51;22.20;72.00
4673;DHT22;61885;53.560;9.940;2023-07-24T11:21:22;22.60;70.80
4673;DHT22;61885;53.560;9.940;2023-07-24T11:23:53;22.70;70.90
4673;DHT22;61885;53.560;9.940;2023-07-24T11:26:24;22.90;70.20
4673;DHT22;61885;53.560;9.940;2023-07-24T11:28:54;22.90;69.20
4673;DHT22;61885;53.560;9.940;2023-07-24T11:31:24;23.00;68.80
4673;DHT22;61885;53.560;9.940;2023-07-24T11:34:00;23.10;68.80
4673;DHT22;61885;53.560;9.940;2023-07-24T11:36:30;23.20;68.30
4673;DHT22;61885;53.560;9.940;2023-07-24T11:39:00;23.20;68.40
4673;DHT22;61885;53.560;9.940;2023-07-24T11:41:30;23.20;68.50
4673;DHT22;61885;53.560;9.940;2023-07-24T11:44:01;23.40;68.50
4673;DHT22;61885;53.560;9.940;2023-07-24T11:46:32;23.60;68.30
4673;DHT22;61885;53.560;9.940;2023-07-24T11:49:07;23.80;67.40
4673;DHT22;61885;53.560;9.940;2023-07-24T11:51:38;24.40;65.90
4673;DHT22;61885;53.560;9.940;2023-07-24T11:54:09;24.50;63.80
4673;DHT22;61885;53.560;9.940;2023-07-24T11:56:41;24.50;64.70
4673;DHT22;61885;53.560;9.940;2023-07-24T11:59:14;25.30;62.50
4673;DHT22;61885;53.560;9.940;2023-07-24T12:01:46;25.60;61.30
4673;DHT22;61885;53.560;9.940;2023-07-24T12:04:20;25.40;61.80
4673;DHT22;61885;53.560;9.940;2023-07-24T12:06:50;25.60;61.40
4673;DHT22;61885;53.560;9.940;2023-07-24T12:09:29;25.50;62.10
4673;DHT22;61885;53.560;9.940;2023-07-24T12:12:03;24.80;63.60
4673;DHT22;61885;53.560;9.940;2023-07-24T12:14:33;25.00;63.80
4673;DHT22;61885;53.560;9.940;2023-07-24T12:17:03;24.80;63.90
4673;DHT22;61885;53.560;9.940;2023-07-24T12:19:45;23.80;65.70
4673;DHT22;61885;53.560;9.940;2023-07-24T12:22:17;24.20;65.50
4673;DHT22;61885;53.560;9.940;2023-07-24T12:24:53;24.70;64.60
4673;DHT22;61885;53.560;9.940;2023-07-24T12:27:23;25.20;62.20
4673;DHT22;61885;53.560;9.940;2023-07-24T12:29:55;25.00;62.10
4673;DHT22;61885;53.560;9.940;2023-07-24T12:32:28;24.50;63.50
4673;DHT22;61885;53.560;9.940;2023-07-24T12:35:04;25.40;61.40
4673;DHT22;61885;53.560;9.940;2023-07-24T12:37:40;26.10;60.10
4673;DHT22;61885;53.560;9.940;2023-07-24T12:40:10;26.70;57.90
4673;DHT22;61885;53.560;9.940;2023-07-24T12:42:41;27.30;55.60
4673;DHT22;61885;53.560;9.940;2023-07-24T12:45:12;27.70;54.90
4673;DHT22;61885;53.560;9.940;2023-07-24T12:47:43;28.20;53.10
4673;DHT22;61885;53.560;9.940;2023-07-24T12:50:17;27.80;53.80
4673;DHT22;61885;53.560;9.940;2023-07-24T12:52:49;27.20;55.20
4673;DHT22;61885;53.560;9.940;2023-07-24T12:55:19;26.00;57.70
4673;DHT22;61885;53.560;9.940;2023-07-24T12:57:51;25.40;60.00
4673;DHT22;61885;53.560;9.940;2023-07-24T13:00:21;25.20;60.60
4673;DHT22;61885;53.560;9.940;2023-07-24T13:03:04;25.20;61.40
4673;DHT22;61885;53.560;9.940;2023-07-24T13:05:39;25.60;60.10
4673;DHT22;61885;53.560;9.940;2023-07-24T13:08:09;26.20;59.40
4673;DHT22;61885;53.560;9.940;2023-07-24T13:10:38;26.90;57.30
4673;DHT22;61885;53.560;9.940;2023-07-24T13:13:12;27.20;56.00
4673;DHT22;61885;53.560;9.940;2023-07-24T13:15:41;26.80;55.90
4673;DHT22;61885;53.560;9.940;2023-07-24T13:18:16;26.00;56.40
4673;DHT22;61885;53.560;9.940;2023-07-24T13:20:52;25.50;57.90
4673;DHT22;61885;53.560;9.940;2023-07-24T13:23:26;25.60;58.60
4673;DHT22;61885;53.560;9.940;2023-07-24T13:26:00;26.20;57.70
4673;DHT22;61885;53.560;9.940;2023-07-24T13:28:30;27.10;53.90
4673;DHT22;61885;53.560;9.940;2023-07-24T13:31:12;27.00;55.20
4673;DHT22;61885;53.560;9.940;2023-07-24T13:33:42;27.10;52.70
4673;DHT22;61885;53.560;9.940;2023-07-24T13:36:14;27.20;54.00
4673;DHT22;61885;53.560;9.940;2023-07-24T13:38:45;27.30;54.10
4673;DHT22;61885;53.560;9.940;2023-07-24T13:41:17;27.30;54.60
4673;DHT22;61885;53.560;9.940;2023-07-24T13:43:48;27.40;55.00
4673;DHT22;61885;53.560;9.940;2023-07-24T13:46:19;27.30;55.50
4673;DHT22;61885;53.560;9.940;2023-07-24T13:48:51;27.70;54.70
4673;DHT22;61885;53.560;9.940;2023-07-24T13:51:23;27.80;54.90
4673;DHT22;61885;53.560;9.940;2023-07-24T13:53:55;28.00;54.40
4673;DHT22;61885;53.560;9.940;2023-07-24T13:56:26;27.90;53.10
4673;DHT22;61885;53.560;9.940;2023-07-24T13:58:57;27.20;54.30
4673;DHT22;61885;53.560;9.940;2023-07-24T14:01:27;27.30;52.00
4673;DHT22;61885;53.560;9.940;2023-07-24T14:03:57;27.20;52.80
4673;DHT22;61885;53.560;9.940;2023-07-24T14:06:32;26.90;54.10
4673;DHT22;61885;53.560;9.940;2023-07-24T14:09:02;26.90;54.60
4673;DHT22;61885;53.560;9.940;2023-07-24T14:11:36;26.50;55.20
4673;DHT22;61885;53.560;9.940;2023-07-24T14:14:06;26.00;56.50
4673;DHT22;61885;53.560;9.940;2023-07-24T14:16:35;25.40;58.20
4673;DHT22;61885;53.560;9.940;2023-07-24T14:19:09;25.40;59.00
4673;DHT22;61885;53.560;9.940;2023-07-24T14:21:41;25.50;57.60
4673;DHT22;61885;53.560;9.940;2023-07-24T14:24:12;25.70;56.60
4673;DHT22;61885;53.560;9.940;2023-07-24T14:26:46;25.70;57.00
4673;DHT22;61885;53.560;9.940;2023-07-24T14:29:18;25.10;57.60
4673;DHT22;61885;53.560;9.940;2023-07-24T14:31:48;24.80;59.10
4673;DHT22;61885;53.560;9.940;2023-07-24T14:34:19;24.80;59.10
4673;DHT22;61885;53.560;9.940;2023-07-24T14:36:55;25.10;59.40
4673;DHT22;61885;53.560;9.940;2023-07-24T14:39:24;25.10;58.80
4673;DHT22;61885;53.560;9.940;2023-07-24T14:41:58;24.90;58.60
4673;DHT22;61885;53.560;9.940;2023-07-24T14:44:29;24.80;59.60
4673;DHT22;61885;53.560;9.940;2023-07-24T14:46:59;24.70;59.20
4673;DHT22;61885;53.560;9.940;2023-07-24T14:49:30;24.70;59.60
4673;DHT22;61885;53.560;9.940;2023-07-24T14:52:07;24.50;60.30
4673;DHT22;61885;53.560;9.940;2023-07-24T14:54:37;24.40;60.30
4673;DHT22;61885;53.560;9.940;2023-07-24T14:57:13;24.40;60.80
4673;DHT22;61885;53.560;9.940;2023-07-24T14:59:44;24.20;61.60
4673;DHT22;61885;53.560;9.940;2023-07-24T15:02:18;23.90;62.10
4673;DHT22;61885;53.560;9.940;2023-07-24T15:04:48;24.10;61.50
4673;DHT22;61885;53.560;9.940;2023-07-24T15:07:22;24.10;61.90
4673;DHT22;61885;53.560;9.940;2023-07-24T15:09:52;23.80;63.10
4673;DHT22;61885;53.560;9.940;2023-07-24T15:12:27;23.90;63.00
4673;DHT22;61885;53.560;9.940;2023-07-24T15:14:59;23.90;62.90
4673;DHT22;61885;53.560;9.940;2023-07-24T15:17:30;23.90;62.70
4673;DHT22;61885;53.560;9.940;2023-07-24T15:20:02;23.80;62.30
4673;DHT22;61885;53.560;9.940;2023-07-24T15:22:39;23.70;62.40
4673;DHT22;61885;53.560;9.940;2023-07-24T15:25:10;23.70;62.50
4673;DHT22;61885;53.560;9.940;2023-07-24T15:27:42;23.60;62.80
4673;DHT22;61885;53.560;9.940;2023-07-24T15:30:12;23.20;65.80
4673;DHT22;61885;53.560;9.940;2023-07-24T15:32:46;22.00;70.70
4673;DHT22;61885;53.560;9.940;2023-07-24T15:35:15;20.40;76.20
4673;DHT22;61885;53.560;9.940;2023-07-24T15:37:51;19.80;77.30
4673;DHT22;61885;53.560;9.940;2023-07-24T15:40:29;19.60;77.80
4673;DHT22;61885;53.560;9.940;2023-07-24T15:43:00;19.20;80.40
4673;DHT22;61885;53.560;9.940;2023-07-24T15:45:31;18.80;81.70
4673;DHT22;61885;53.560;9.940;2023-07-24T15:48:05;18.60;82.80
4673;DHT22;61885;53.560;9.940;2023-07-24T15:50:35;18.50;83.50
4673;DHT22;61885;53.560;9.940;2023-07-24T15:53:09;18.50;84.00
4673;DHT22;61885;53.560;9.940;2023-07-24T15:55:38;18.40;84.80
4673;DHT22;61885;53.560;9.940;2023-07-24T15:58:08;18.20;85.70
4673;DHT22;61885;53.560;9.940;2023-07-24T16:00:38;18.10;86.50
4673;DHT22;61885;53.560;9.940;2023-07-24T16:03:08;18.10;86.60
4673;DHT22;61885;53.560;9.940;2023-07-24T16:05:46;18.20;85.80
4673;DHT22;61885;53.560;9.940;2023-07-24T16:08:22;18.10;85.90
4673;DHT22;61885;53.560;9.940;2023-07-24T16:10:52;18.10;85.90